^^
Datos históricos de la estación: Murcia-Puente Tocinos
Diario Informe para Noviembre 1, 2019 Unidades:  Métrico    Ingés   Ambas
Diario Semanal Mensual Anual
  Máxima: Mínima: Promedio:
Temperatura: 27.9 °C 17.9 °C 22.8 °C
Punto de rocio: 16.3 °C 13.3 °C 14.3 °C
Humedad: 76% 42% 60%
Velocidad viento: 13.7km/h 0km/h 7.2km/h
Racha viento: 28.2km/h - -
Viento- - SO
Presión: 1020.1 hPa 1013.7 hPa -
Precipitación: 0.0 mm    
 
 
Tabla de datos para Noviembre 1, 2019
Hora Temperatura Punto de rocio Presión Viento Velocidad viento Racha viento Humedad Intensidad lluvia(por hora) Nubes
00:04 21.1 °C 13.4 °C 1020.1 hPa SSO 5.7 km/h 8 km/h 61.4% 0.0 mm
00:09 21.1 °C 13.3 °C 1020.1 hPa SO 5 km/h 7.4 km/h 61% 0.0 mm
00:14 21.1 °C 13.3 °C 1019.9 hPa SO 4.1 km/h 9.7 km/h 61% 0.0 mm
00:19 21.1 °C 13.3 °C 1019.9 hPa SO 3.9 km/h 11.1 km/h 61% 0.0 mm
00:24 21 °C 13.4 °C 1019.9 hPa SO 6.2 km/h 11.3 km/h 62% 0.0 mm
00:29 20.8 °C 13.3 °C 1019.7 hPa SO 6.9 km/h 14 km/h 62.2% 0.0 mm
00:34 20.8 °C 13.5 °C 1019.7 hPa SSO 8.1 km/h 14.8 km/h 63% 0.0 mm
00:39 20.8 °C 13.5 °C 1019.7 hPa SSO 8.4 km/h 14.5 km/h 63% 0.0 mm
00:44 20.7 °C 13.4 °C 1019.4 hPa SO 8.6 km/h 12.9 km/h 63% 0.0 mm
00:49 20.7 °C 13.4 °C 1019.4 hPa OSO 8.7 km/h 9.7 km/h 63.2% 0.0 mm
00:54 20.6 °C 13.5 °C 1019.4 hPa ONO 5 km/h 6.4 km/h 64% 0.0 mm
00:59 20.4 °C 13.4 °C 1019.4 hPa NO 3.9 km/h 5 km/h 64.1% 0.0 mm
01:04 20.3 °C 13.5 °C 1019.4 hPa Sur 3.1 km/h 8.4 km/h 65.2% 0.0 mm
01:09 20.1 °C 13.7 °C 1019.4 hPa SSE 2.9 km/h 13.7 km/h 66.6% 0.0 mm
01:14 19.8 °C 13.7 °C 1019.1 hPa SSE 6.5 km/h 14.5 km/h 68.2% 0.0 mm
01:19 19.6 °C 13.8 °C 1019.1 hPa SSE 7.6 km/h 11.9 km/h 69.4% 0.0 mm
01:24 19.4 °C 13.8 °C 1019.3 hPa SSE 8.2 km/h 13 km/h 70.2% 0.0 mm
01:29 19.3 °C 13.9 °C 1019.3 hPa Sur 8.4 km/h 13 km/h 71% 0.0 mm
01:34 19.2 °C 13.9 °C 1019.3 hPa Sur 8.4 km/h 13.7 km/h 71% 0.0 mm
01:39 19.3 °C 13.8 °C 1019.3 hPa Sur 8.4 km/h 14.5 km/h 70.8% 0.0 mm
01:44 19.3 °C 13.7 °C 1019.2 hPa SSO 8.6 km/h 13 km/h 70% 0.0 mm
01:49 19.4 °C 13.6 °C 1019.2 hPa SSO 8.7 km/h 12.9 km/h 69.1% 0.0 mm
01:54 19.5 °C 13.6 °C 1019.2 hPa SSO 7.8 km/h 11.3 km/h 68.8% 0.0 mm
01:59 19.6 °C 13.6 °C 1019.1 hPa SSO 7.6 km/h 9.7 km/h 68% 0.0 mm
02:04 19.6 °C 13.6 °C 1019.1 hPa SSO 5.3 km/h 8 km/h 68% 0.0 mm
02:09 19.6 °C 13.6 °C 1019.3 hPa SSO 4.7 km/h 4.8 km/h 68% 0.0 mm
02:14 19.6 °C 13.6 °C 1019.3 hPa SSO 2.8 km/h 4.8 km/h 68.4% 0.0 mm
02:19 19.4 °C 13.6 °C 1019.3 hPa SSO 2.2 km/h 4.8 km/h 69% 0.0 mm
02:24 19.3 °C 13.7 °C 1019.3 hPa SSO 2.2 km/h 3.9 km/h 69.9% 0.0 mm
02:29 19.2 °C 13.6 °C 1019.2 hPa SSO 2.2 km/h 5.8 km/h 70% 0.0 mm
02:34 19.2 °C 13.6 °C 1019.2 hPa SSO 2.7 km/h 8.4 km/h 70% 0.0 mm
02:39 19.2 °C 13.6 °C 1019.2 hPa SSO 2.9 km/h 8 km/h 70% 0.0 mm
02:44 19.2 °C 13.6 °C 1019.1 hPa SSO 4.5 km/h 8 km/h 70% 0.0 mm
02:49 19.2 °C 13.6 °C 1019.1 hPa SSO 5 km/h 8 km/h 70% 0.0 mm
02:54 19.2 °C 13.6 °C 1019.2 hPa SSO 5 km/h 9.3 km/h 70% 0.0 mm
02:59 19.2 °C 13.6 °C 1019.2 hPa SSO 5 km/h 9.7 km/h 70% 0.0 mm
03:04 19.3 °C 13.5 °C 1019.2 hPa SO 6.5 km/h 9.7 km/h 69.2% 0.0 mm
03:09 19.4 °C 13.5 °C 1019.2 hPa SSO 6.9 km/h 9.7 km/h 69% 0.0 mm
03:14 19.3 °C 13.5 °C 1019.1 hPa SSO 6.6 km/h 10 km/h 69% 0.0 mm
03:19 19.3 °C 13.4 °C 1019.1 hPa SSO 6.5 km/h 11.1 km/h 69% 0.0 mm
03:24 19.3 °C 13.4 °C 1019.1 hPa SSO 6.8 km/h 11.3 km/h 69% 0.0 mm
03:29 19.3 °C 13.4 °C 1019.0 hPa SSO 6.9 km/h 11.3 km/h 69% 0.0 mm
03:34 19.3 °C 13.4 °C 1019.0 hPa SSO 7.4 km/h 11.3 km/h 69% 0.0 mm
03:39 19.3 °C 13.4 °C 1019.0 hPa SSO 7.6 km/h 11.3 km/h 69% 0.0 mm
03:44 19.3 °C 13.4 °C 1018.6 hPa OSO 6.2 km/h 8.4 km/h 69% 0.0 mm
03:49 19.3 °C 13.4 °C 1018.6 hPa Oeste 5.8 km/h 8 km/h 69% 0.0 mm
03:54 19.2 °C 13.4 °C 1018.6 hPa ONO 3.8 km/h 6.4 km/h 69.1% 0.0 mm
03:59 19.2 °C 13.5 °C 1018.6 hPa ONO 3.2 km/h 3.9 km/h 70% 0.0 mm
04:04 18.9 °C 13.5 °C 1018.6 hPa NNO 2.5 km/h 8.4 km/h 70.5% 0.0 mm
04:09 18.7 °C 13.5 °C 1018.7 hPa ESE 2.2 km/h 8 km/h 71.8% 0.0 mm
04:14 18.4 °C 13.5 °C 1018.7 hPa ESE 3.5 km/h 8 km/h 73.3% 0.0 mm
04:19 18.2 °C 13.5 °C 1018.7 hPa ESE 3.9 km/h 5.6 km/h 74% 0.0 mm
04:24 18.1 °C 13.5 °C 1018.7 hPa ESE 2.6 km/h 7.4 km/h 74.5% 0.0 mm
04:29 18.1 °C 13.6 °C 1018.7 hPa SE 2.2 km/h 8.4 km/h 75% 0.0 mm
04:34 18.1 °C 13.6 °C 1018.7 hPa NE 3.5 km/h 8 km/h 75% 0.0 mm
04:39 17.9 °C 13.5 °C 1018.7 hPa NE 3.9 km/h 8 km/h 75.5% 0.0 mm
04:44 17.9 °C 13.6 °C 1018.7 hPa NE 2.6 km/h 7.6 km/h 76% 0.0 mm
04:49 18 °C 13.7 °C 1018.7 hPa ONO 2.2 km/h 9.3 km/h 75.9% 0.0 mm
04:54 17.9 °C 13.5 °C 1018.7 hPa NO 4.1 km/h 9.7 km/h 75.7% 0.0 mm
04:59 17.9 °C 13.6 °C 1018.7 hPa ONO 4.7 km/h 5.8 km/h 76% 0.0 mm
05:04 17.9 °C 13.6 °C 1018.7 hPa Oeste 3.5 km/h 6.4 km/h 76% 0.0 mm
05:09 18 °C 13.7 °C 1018.7 hPa OSO 3.2 km/h 7.4 km/h 76% 0.0 mm
05:14 18.2 °C 13.6 °C 1018.7 hPa SO 3.2 km/h 8.4 km/h 75% 0.0 mm
05:19 18.3 °C 13.6 °C 1018.7 hPa SO 3.2 km/h 8.4 km/h 74% 0.0 mm
05:24 18.4 °C 13.5 °C 1018.7 hPa SO 4.6 km/h 9.3 km/h 73.1% 0.0 mm
05:29 18.5 °C 13.6 °C 1018.7 hPa SO 5 km/h 9.7 km/h 73% 0.0 mm
05:34 18.5 °C 13.6 °C 1018.7 hPa SO 5 km/h 9.7 km/h 73% 0.0 mm
05:39 18.5 °C 13.6 °C 1018.7 hPa OSO 5 km/h 9.7 km/h 73% 0.0 mm
05:44 18.5 °C 13.5 °C 1018.6 hPa Oeste 5 km/h 8 km/h 73% 0.0 mm
05:49 18.4 °C 13.4 °C 1018.6 hPa Oeste 5 km/h 4.8 km/h 73% 0.0 mm
05:54 18.4 °C 13.4 °C 1018.8 hPa Oeste 3.4 km/h 4.8 km/h 73% 0.0 mm
05:59 18.4 °C 13.4 °C 1018.8 hPa Oeste 2.9 km/h 5 km/h 73% 0.0 mm
06:04 18.4 °C 13.4 °C 1018.8 hPa Oeste 0.6 km/h 7.4 km/h 73% 0.0 mm
06:09 18.4 °C 13.4 °C 1018.8 hPa Calm   8 km/h 73% 0.0 mm
06:14 18.5 °C 13.5 °C 1018.7 hPa SO 3.8 km/h 8 km/h 72.5% 0.0 mm
06:19 18.7 °C 13.5 °C 1018.7 hPa OSO 5 km/h 8 km/h 72% 0.0 mm
06:24 18.7 °C 13.4 °C 1018.7 hPa SO 4.7 km/h 9.3 km/h 71.3% 0.0 mm
06:29 18.8 °C 13.5 °C 1018.7 hPa SO 4.7 km/h 9.7 km/h 71% 0.0 mm
06:34 18.9 °C 13.4 °C 1018.7 hPa OSO 4.9 km/h 9.5 km/h 70.4% 0.0 mm
06:39 19.1 °C 13.5 °C 1018.7 hPa OSO 5 km/h 9.7 km/h 70% 0.0 mm
06:44 19.1 °C 13.3 °C 1018.6 hPa OSO 5 km/h 8.4 km/h 69.2% 0.0 mm
06:49 19.2 °C 13.4 °C 1018.6 hPa OSO 5 km/h 10 km/h 69% 0.0 mm
06:54 19.2 °C 13.4 °C 1018.6 hPa OSO 5 km/h 10 km/h 69% 0.0 mm
06:59 19.3 °C 13.4 °C 1018.6 hPa SO 5 km/h 9.7 km/h 69% 0.0 mm
07:04 19.3 °C 13.4 °C 1018.6 hPa Sur 5.6 km/h 8.4 km/h 69% 0.0 mm
07:09 19.2 °C 13.4 °C 1018.6 hPa Sur 5.8 km/h 8.4 km/h 69.3% 0.0 mm
07:14 18.9 °C 13.4 °C 1018.5 hPa SSO 5.8 km/h 9.3 km/h 70.5% 0.0 mm
07:19 18.7 °C 13.5 °C 1018.5 hPa OSO 5.8 km/h 9.7 km/h 71.3% 0.0 mm
07:24 18.7 °C 13.6 °C 1018.5 hPa SSO 5.8 km/h 11.9 km/h 72% 0.0 mm
07:29 18.7 °C 13.5 °C 1018.4 hPa SO 5.8 km/h 11.9 km/h 71.8% 0.0 mm
07:34 18.7 °C 13.4 °C 1018.4 hPa SO 6.7 km/h 11.3 km/h 71.4% 0.0 mm
07:39 18.7 °C 13.5 °C 1018.5 hPa SO 6.9 km/h 11.1 km/h 71.8% 0.0 mm
07:44 18.7 °C 13.4 °C 1018.5 hPa OSO 6.6 km/h 11.3 km/h 71% 0.0 mm
07:49 18.8 °C 13.4 °C 1018.5 hPa OSO 6.5 km/h 9.7 km/h 71% 0.0 mm
07:54 18.9 °C 13.5 °C 1018.5 hPa SO 6.5 km/h 10 km/h 71% 0.0 mm
07:59 18.9 °C 13.5 °C 1018.2 hPa SO 6.5 km/h 9.7 km/h 71% 0.0 mm
08:04 19 °C 13.5 °C 1018.2 hPa SO 6.5 km/h 14.8 km/h 70.4% 0.0 mm
08:09 19.2 °C 13.6 °C 1018.4 hPa SO 6.5 km/h 14.5 km/h 70% 0.0 mm
08:14 19.2 °C 13.5 °C 1018.4 hPa SO 7.3 km/h 11.3 km/h 69.7% 0.0 mm
08:19 19.2 °C 13.6 °C 1018.4 hPa SO 7.6 km/h 8 km/h 69.9% 0.0 mm
08:24 19.3 °C 13.6 °C 1018.4 hPa SO 4.3 km/h 4.8 km/h 70% 0.0 mm
08:29 19.2 °C 13.6 °C 1018.4 hPa OSO 3.2 km/h 5.6 km/h 70% 0.0 mm
08:34 19.2 °C 13.7 °C 1018.4 hPa SSO 2.5 km/h 7.4 km/h 70.5% 0.0 mm
08:39 19 °C 13.6 °C 1018.4 hPa SSE 2.2 km/h 9.3 km/h 71% 0.0 mm
08:44 18.9 °C 13.5 °C 1018.3 hPa SSE 5 km/h 9.7 km/h 71.2% 0.0 mm
08:49 18.9 °C 13.7 °C 1018.3 hPa SSE 5.8 km/h 8 km/h 71.8% 0.0 mm
08:54 18.9 °C 13.7 °C 1018.6 hPa SE 3.8 km/h 9.5 km/h 72% 0.0 mm
08:59 18.8 °C 13.7 °C 1018.6 hPa SE 3.2 km/h 11.1 km/h 72% 0.0 mm
09:04 18.8 °C 13.7 °C 1018.6 hPa SSE 5.3 km/h 11.3 km/h 72% 0.0 mm
09:09 18.8 °C 13.7 °C 1018.8 hPa SSE 5.8 km/h 11.3 km/h 72% 0.0 mm
09:14 18.9 °C 13.7 °C 1018.8 hPa Sur 7.1 km/h 11.9 km/h 72% 0.0 mm
09:19 19 °C 13.8 °C 1018.8 hPa Sur 7.6 km/h 11.3 km/h 72% 0.0 mm
09:24 19.4 °C 14 °C 1018.8 hPa Sur 7.1 km/h 10.3 km/h 71.2% 0.0 mm
09:29 19.8 °C 14.1 °C 1018.8 hPa Sur 6.9 km/h 13 km/h 69.6% 0.0 mm
09:34 20.3 °C 14.2 °C 1018.8 hPa Sur 7.4 km/h 13 km/h 67.7% 0.0 mm
09:39 20.8 °C 14.1 °C 1018.8 hPa Sur 7.6 km/h 13.7 km/h 65.5% 0.0 mm
09:44 21.2 °C 14.3 °C 1018.8 hPa Sur 9 km/h 14.5 km/h 64.7% 0.0 mm
09:49 21.3 °C 14.3 °C 1018.8 hPa Sur 9.5 km/h 12.9 km/h 64.3% 0.0 mm
09:54 21.5 °C 14.5 °C 1018.9 hPa SSE 8 km/h 11.3 km/h 64.3% 0.0 mm
09:59 21.8 °C 14.5 °C 1018.9 hPa SSE 7.6 km/h 13 km/h 63.1% 0.0 mm
10:04 22.1 °C 14.6 °C 1018.9 hPa SE 8.2 km/h 12.9 km/h 62.5% 0.0 mm
10:09 22.3 °C 14.7 °C 1018.9 hPa Sur 8.4 km/h 10 km/h 61.9% 0.0 mm
10:14 22.6 °C 14.6 °C 1018.9 hPa Sur 6.4 km/h 11.9 km/h 60.9% 0.0 mm
10:19 22.7 °C 14.5 °C 1018.9 hPa Sur 5.8 km/h 11.3 km/h 60% 0.0 mm
10:24 22.8 °C 14.6 °C 1018.9 hPa SSO 6.3 km/h 9.7 km/h 59.7% 0.0 mm
10:29 23 °C 14.6 °C 1018.8 hPa SO 6.5 km/h 9.7 km/h 59.1% 0.0 mm
10:34 23.2 °C 14.7 °C 1018.8 hPa SO 5.3 km/h 9.5 km/h 59% 0.0 mm
10:39 23.3 °C 14.6 °C 1018.8 hPa OSO 5 km/h 9.7 km/h 58.2% 0.0 mm
10:44 23.5 °C 14.7 °C 1018.6 hPa Oeste 5 km/h 11.9 km/h 58% 0.0 mm
10:49 23.6 °C 14.8 °C 1018.6 hPa OSO 5 km/h 11.3 km/h 57.9% 0.0 mm
10:54 23.7 °C 14.8 °C 1018.6 hPa OSO 6.1 km/h 13.7 km/h 57.3% 0.0 mm
10:59 23.9 °C 14.9 °C 1018.5 hPa OSO 6.5 km/h 14.5 km/h 57% 0.0 mm
11:04 24.1 °C 14.8 °C 1018.5 hPa OSO 7.4 km/h 13 km/h 56% 0.0 mm
11:09 24.2 °C 14.8 °C 1018.5 hPa OSO 7.6 km/h 16.1 km/h 55.8% 0.0 mm
11:14 24.3 °C 14.7 °C 1018.4 hPa OSO 9.1 km/h 16.7 km/h 55% 0.0 mm
11:19 24.5 °C 14.8 °C 1018.4 hPa SO 9.5 km/h 16.7 km/h 54.9% 0.0 mm
11:24 24.7 °C 15 °C 1018.4 hPa SO 8.9 km/h 16.1 km/h 55% 0.0 mm
11:29 24.8 °C 15.1 °C 1018.2 hPa OSO 8.7 km/h 15.6 km/h 54.7% 0.0 mm
11:34 24.9 °C 15.2 °C 1018.2 hPa OSO 8.7 km/h 17.2 km/h 55% 0.0 mm
11:39 25 °C 15.3 °C 1018.2 hPa ONO 8.7 km/h 25.1 km/h 54.7% 0.0 mm
11:44 25.3 °C 15.3 °C 1017.9 hPa Oeste 12.1 km/h 25.9 km/h 54% 0.0 mm
11:49 25.3 °C 15.4 °C 1017.9 hPa Oeste 13 km/h 25.7 km/h 54% 0.0 mm
11:54 25.6 °C 15.6 °C 1017.9 hPa ONO 12.4 km/h 19.3 km/h 54% 0.0 mm
11:59 25.7 °C 15.5 °C 1017.9 hPa OSO 12.2 km/h 24.1 km/h 53.2% 0.0 mm
12:04 25.8 °C 15.4 °C 1017.9 hPa Oeste 11.3 km/h 24.1 km/h 52.7% 0.0 mm
12:09 25.8 °C 15.3 °C 1017.9 hPa Oeste 11.1 km/h 24.1 km/h 52.1% 0.0 mm
12:14 25.9 °C 15.5 °C 1017.8 hPa OSO 12.6 km/h 24.1 km/h 52.8% 0.0 mm
12:19 26.1 °C 15.5 °C 1017.8 hPa OSO 13 km/h 13 km/h 52.1% 0.0 mm
12:24 26.3 °C 15.4 °C 1017.8 hPa Oeste 7.9 km/h 13.7 km/h 51.2% 0.0 mm
12:29 26.5 °C 15.5 °C 1017.4 hPa ONO 6.5 km/h 19 km/h 50.8% 0.0 mm
12:34 26.7 °C 15.3 °C 1017.4 hPa ONO 8.2 km/h 21.7 km/h 49.9% 0.0 mm
12:39 26.7 °C 15.5 °C 1017.4 hPa NO 8.7 km/h 22.5 km/h 50.3% 0.0 mm
12:44 26.8 °C 15.5 °C 1017.1 hPa NO 10 km/h 22.5 km/h 50% 0.0 mm
12:49 26.7 °C 15.4 °C 1017.1 hPa NO 10.3 km/h 22.5 km/h 50% 0.0 mm
12:54 26.7 °C 15.4 °C 1017.1 hPa ONO 11.6 km/h 19.8 km/h 50% 0.0 mm
12:59 26.6 °C 15.2 °C 1016.8 hPa ONO 11.9 km/h 20.9 km/h 49.4% 0.0 mm
13:04 26.7 °C 15.1 °C 1016.8 hPa Oeste 11.3 km/h 20.9 km/h 49% 0.0 mm
13:09 26.8 °C 15 °C 1016.8 hPa Oeste 11.1 km/h 19.3 km/h 48.4% 0.0 mm
13:14 26.9 °C 15.1 °C 1016.4 hPa ONO 11.1 km/h 25.9 km/h 48.4% 0.0 mm
13:19 27.1 °C 15.2 °C 1016.4 hPa NO 11.1 km/h 25.7 km/h 48.1% 0.0 mm
13:24 27.2 °C 15 °C 1016.4 hPa ONO 10.5 km/h 20.9 km/h 47.4% 0.0 mm
13:29 27.3 °C 14.9 °C 1016.2 hPa ONO 10.3 km/h 22.2 km/h 46.8% 0.0 mm
13:34 27.3 °C 14.7 °C 1016.2 hPa Oeste 11.5 km/h 22.5 km/h 46.2% 0.0 mm
13:39 27.4 °C 15 °C 1016.2 hPa ONO 11.9 km/h 22.5 km/h 46.7% 0.0 mm
13:44 27.4 °C 14.8 °C 1016.0 hPa Oeste 11.3 km/h 22.5 km/h 46.1% 0.0 mm
13:49 27.3 °C 14.7 °C 1016.0 hPa Oeste 11.1 km/h 20.4 km/h 46% 0.0 mm
13:54 27.3 °C 14.7 °C 1016.0 hPa Oeste 11.1 km/h 20.9 km/h 46.2% 0.0 mm
13:59 27.2 °C 14.6 °C 1015.6 hPa ONO 11.1 km/h 11.3 km/h 46% 0.0 mm
14:04 27.2 °C 14.5 °C 1015.6 hPa Oeste 6.9 km/h 15.6 km/h 45.8% 0.0 mm
14:09 27.2 °C 14.4 °C 1015.6 hPa OSO 5.8 km/h 16.1 km/h 45.5% 0.0 mm
14:14 27.4 °C 14.5 °C 1015.4 hPa Oeste 8.6 km/h 20.9 km/h 45.2% 0.0 mm
14:19 27.6 °C 14.6 °C 1015.4 hPa Oeste 9.5 km/h 20.9 km/h 45.1% 0.0 mm
14:24 27.7 °C 14.4 °C 1015.4 hPa Oeste 10.1 km/h 20.9 km/h 44.2% 0.0 mm
14:29 27.7 °C 14.4 °C 1015.1 hPa Oeste 10.3 km/h 20.1 km/h 44.1% 0.0 mm
14:34 27.8 °C 14.4 °C 1015.1 hPa Oeste 10.3 km/h 25.9 km/h 44% 0.0 mm
14:39 27.8 °C 14.4 °C 1015.1 hPa OSO 10.3 km/h 25.9 km/h 44% 0.0 mm
14:44 27.8 °C 14.3 °C 1014.9 hPa OSO 11.8 km/h 24.1 km/h 43.6% 0.0 mm
14:49 27.8 °C 14 °C 1014.9 hPa Oeste 12.2 km/h 25.9 km/h 42.8% 0.0 mm
14:54 27.8 °C 13.9 °C 1014.9 hPa Oeste 12.9 km/h 25.7 km/h 42.4% 0.0 mm
14:59 27.8 °C 14.1 °C 1014.9 hPa OSO 13 km/h 22.5 km/h 42.9% 0.0 mm
15:04 27.9 °C 14.1 °C 1014.9 hPa Oeste 10.8 km/h 28.2 km/h 42.8% 0.0 mm
15:09 27.8 °C 13.8 °C 1014.9 hPa Oeste 10.3 km/h 27.8 km/h 42% 0.0 mm
15:14 27.8 °C 13.8 °C 1014.8 hPa Oeste 12.9 km/h 27.4 km/h 42.3% 0.0 mm
15:19 27.8 °C 14.1 °C 1014.8 hPa Oeste 13.7 km/h 23.7 km/h 43% 0.0 mm
15:24 27.7 °C 13.7 °C 1014.8 hPa Oeste 11.7 km/h 24.1 km/h 42.2% 0.0 mm
15:29 27.7 °C 13.9 °C 1014.8 hPa OSO 11.1 km/h 24.1 km/h 42.7% 0.0 mm
15:34 27.6 °C 13.9 °C 1014.8 hPa OSO 12.6 km/h 24.1 km/h 43% 0.0 mm
15:39 27.6 °C 13.9 °C 1014.8 hPa OSO 13 km/h 20.9 km/h 43% 0.0 mm
15:44 27.6 °C 14 °C 1014.7 hPa OSO 10.3 km/h 20.9 km/h 43.3% 0.0 mm
15:49 27.6 °C 14.2 °C 1014.7 hPa SO 9.5 km/h 20.9 km/h 43.8% 0.0 mm
15:54 27.6 °C 13.9 °C 1014.8 hPa OSO 11.4 km/h 24.1 km/h 43% 0.0 mm
15:59 27.5 °C 13.8 °C 1014.8 hPa OSO 11.9 km/h 24.1 km/h 43% 0.0 mm
16:04 27.5 °C 13.8 °C 1014.8 hPa SO 13.3 km/h 22.5 km/h 43% 0.0 mm
16:09 27.5 °C 13.8 °C 1014.8 hPa OSO 13.7 km/h 24.1 km/h 43% 0.0 mm
16:14 27.5 °C 14.1 °C 1014.6 hPa OSO 12.3 km/h 24.1 km/h 43.9% 0.0 mm
16:19 27.6 °C 14.2 °C 1014.6 hPa OSO 11.9 km/h 17.7 km/h 44% 0.0 mm
16:24 27.7 °C 14.2 °C 1014.6 hPa OSO 8.1 km/h 18.5 km/h 43.7% 0.0 mm
16:29 27.7 °C 14.2 °C 1014.6 hPa OSO 6.9 km/h 19.3 km/h 43.5% 0.0 mm
16:34 27.7 °C 14 °C 1014.6 hPa OSO 10.1 km/h 22.5 km/h 43.1% 0.0 mm
16:39 27.8 °C 14 °C 1014.6 hPa OSO 11.1 km/h 22.5 km/h 43% 0.0 mm
16:44 27.8 °C 14.2 °C 1014.5 hPa OSO 10.2 km/h 17.7 km/h 43.4% 0.0 mm
16:49 27.8 °C 14.3 °C 1014.5 hPa OSO 10 km/h 18.5 km/h 43.6% 0.0 mm
16:54 27.7 °C 14 °C 1014.5 hPa OSO 9.6 km/h 19.3 km/h 43% 0.0 mm
16:59 27.7 °C 14 °C 1014.5 hPa OSO 9.5 km/h 19.3 km/h 43% 0.0 mm
17:04 27.7 °C 14.1 °C 1014.5 hPa OSO 10.8 km/h 18.5 km/h 43.4% 0.0 mm
17:09 27.6 °C 14.1 °C 1014.5 hPa Oeste 11.1 km/h 19.3 km/h 43.8% 0.0 mm
17:14 27.4 °C 14.1 °C 1014.4 hPa Oeste 9.9 km/h 20.4 km/h 44% 0.0 mm
17:19 27.4 °C 14 °C 1014.4 hPa Oeste 9.5 km/h 20.9 km/h 43.9% 0.0 mm
17:24 27.3 °C 14 °C 1014.4 hPa Oeste 10.1 km/h 20.9 km/h 44% 0.0 mm
17:29 27.3 °C 14 °C 1014.3 hPa Oeste 10.3 km/h 20.9 km/h 44% 0.0 mm
17:34 27.2 °C 13.7 °C 1014.3 hPa ONO 9.7 km/h 20.9 km/h 43.2% 0.0 mm
17:39 27.2 °C 13.8 °C 1014.3 hPa Oeste 9.5 km/h 20.9 km/h 43.9% 0.0 mm
17:44 27.1 °C 13.7 °C 1014.3 hPa Oeste 11.4 km/h 20.4 km/h 43.9% 0.0 mm
17:49 26.9 °C 13.6 °C 1014.3 hPa Oeste 11.9 km/h 25.9 km/h 43.8% 0.0 mm
17:54 26.8 °C 13.6 °C 1014.4 hPa Oeste 13.3 km/h 25.7 km/h 44% 0.0 mm
17:59 26.7 °C 13.5 °C 1014.4 hPa Oeste 13.7 km/h 24.1 km/h 44% 0.0 mm
18:04 26.7 °C 13.5 °C 1014.4 hPa Oeste 11 km/h 20.9 km/h 44.3% 0.0 mm
18:09 26.5 °C 13.6 °C 1014.5 hPa OSO 10.3 km/h 14.8 km/h 45% 0.0 mm
18:14 26.4 °C 13.5 °C 1014.5 hPa OSO 8.2 km/h 14.8 km/h 45.2% 0.0 mm
18:19 26.3 °C 13.8 °C 1014.5 hPa Oeste 7.6 km/h 13 km/h 46% 0.0 mm
18:24 26.2 °C 13.7 °C 1014.5 hPa Oeste 7.1 km/h 20.4 km/h 46% 0.0 mm
18:29 26.2 °C 13.7 °C 1014.5 hPa Oeste 6.9 km/h 20.9 km/h 46% 0.0 mm
18:34 26.1 °C 13.6 °C 1014.5 hPa Oeste 10.2 km/h 22.2 km/h 46% 0.0 mm
18:39 26.1 °C 13.6 °C 1014.7 hPa Oeste 11.1 km/h 22.5 km/h 46% 0.0 mm
18:44 26.1 °C 13.6 °C 1014.7 hPa Oeste 10.5 km/h 19.3 km/h 46% 0.0 mm
18:49 26 °C 13.5 °C 1014.7 hPa OSO 10.3 km/h 16.1 km/h 46% 0.0 mm
18:54 25.9 °C 13.4 °C 1014.7 hPa Oeste 8.2 km/h 14.5 km/h 46% 0.0 mm
18:59 25.8 °C 13.6 °C 1014.7 hPa Oeste 7.6 km/h 15.6 km/h 46.8% 0.0 mm
19:04 25.8 °C 13.6 °C 1014.7 hPa Oeste 8.2 km/h 16.1 km/h 47% 0.0 mm
19:09 25.8 °C 13.6 °C 1014.7 hPa Oeste 8.4 km/h 14.8 km/h 47% 0.0 mm
19:14 25.7 °C 13.9 °C 1014.7 hPa SO 8.4 km/h 14.8 km/h 48% 0.0 mm
19:19 25.4 °C 14.5 °C 1014.7 hPa Sur 8.4 km/h 14.8 km/h 50.8% 0.0 mm
19:24 25.2 °C 14.8 °C 1014.8 hPa SO 8.6 km/h 14.8 km/h 52.6% 0.0 mm
19:29 25 °C 14.9 °C 1014.8 hPa SO 8.7 km/h 14.5 km/h 53.4% 0.0 mm
19:34 24.9 °C 14.7 °C 1014.8 hPa SO 7.3 km/h 14.8 km/h 53.3% 0.0 mm
19:39 24.9 °C 14.7 °C 1014.8 hPa OSO 6.9 km/h 14.5 km/h 53.2% 0.0 mm
19:44 24.8 °C 14.8 °C 1014.7 hPa SSO 6.6 km/h 11.9 km/h 53.7% 0.0 mm
19:49 24.7 °C 15.2 °C 1014.7 hPa Sur 6.5 km/h 14.8 km/h 55.3% 0.0 mm
19:54 24.6 °C 15.5 °C 1014.7 hPa SSO 8.2 km/h 14.5 km/h 56.8% 0.0 mm
19:59 24.4 °C 15.4 °C 1014.4 hPa SSO 8.7 km/h 15.6 km/h 57% 0.0 mm
20:04 24.3 °C 15.2 °C 1014.4 hPa SO 7.8 km/h 16.1 km/h 57% 0.0 mm
20:09 24.3 °C 15.2 °C 1014.4 hPa SO 7.6 km/h 10.3 km/h 57% 0.0 mm
20:14 24.2 °C 15.2 °C 1014.4 hPa SO 6.7 km/h 13 km/h 57% 0.0 mm
20:19 24.2 °C 15.1 °C 1014.4 hPa SO 6.5 km/h 12.9 km/h 56.6% 0.0 mm
20:24 24.2 °C 14.9 °C 1014.4 hPa SO 7.3 km/h 13 km/h 56% 0.0 mm
20:29 24.2 °C 14.9 °C 1014.4 hPa SSO 7.6 km/h 14.5 km/h 56% 0.0 mm
20:34 24.2 °C 14.6 °C 1014.4 hPa SO 8.2 km/h 14.5 km/h 55% 0.0 mm
20:39 24.2 °C 14.6 °C 1014.4 hPa SO 8.4 km/h 11.9 km/h 55% 0.0 mm
20:44 24.2 °C 14.8 °C 1014.3 hPa SSO 6.9 km/h 11.3 km/h 55.8% 0.0 mm
20:49 24.2 °C 14.9 °C 1014.3 hPa SSO 6.5 km/h 9.7 km/h 56% 0.0 mm
20:54 24.2 °C 15.1 °C 1014.3 hPa SO 6.5 km/h 11.1 km/h 56.8% 0.0 mm
20:59 24.2 °C 15.2 °C 1014.2 hPa SSO 6.5 km/h 11.3 km/h 57.4% 0.0 mm
21:04 24.1 °C 15.3 °C 1014.2 hPa SO 5.3 km/h 8.4 km/h 58% 0.0 mm
21:09 24 °C 15.5 °C 1014.2 hPa SO 5 km/h 8.4 km/h 59% 0.0 mm
21:14 23.8 °C 15.6 °C 1014.2 hPa SO 5 km/h 10 km/h 59.8% 0.0 mm
21:19 23.7 °C 15.7 °C 1014.2 hPa SO 5 km/h 9.7 km/h 60.9% 0.0 mm
21:24 23.6 °C 15.6 °C 1014.3 hPa OSO 5.6 km/h 9.7 km/h 61.1% 0.0 mm
21:29 23.3 °C 15.7 °C 1014.3 hPa OSO 5.8 km/h 9.7 km/h 62.3% 0.0 mm
21:34 23.2 °C 15.9 °C 1014.3 hPa OSO 4.3 km/h 6.4 km/h 63.6% 0.0 mm
21:39 23 °C 16 °C 1014.3 hPa Oeste 3.9 km/h 6.4 km/h 64.8% 0.0 mm
21:44 22.9 °C 16.1 °C 1014.2 hPa Oeste 3.1 km/h 6.4 km/h 65.6% 0.0 mm
21:49 22.8 °C 16.1 °C 1014.2 hPa Sur 2.9 km/h 7.4 km/h 66% 0.0 mm
21:54 22.7 °C 16.1 °C 1014.2 hPa SSE 2.9 km/h 8 km/h 66.4% 0.0 mm
21:59 22.6 °C 16.1 °C 1014.2 hPa Sur 2.9 km/h 8.4 km/h 66.7% 0.0 mm
22:04 22.5 °C 16.2 °C 1014.2 hPa ONO 4.4 km/h 10 km/h 67.4% 0.0 mm
22:09 22.3 °C 16.3 °C 1014.2 hPa Oeste 4.7 km/h 9.7 km/h 68.7% 0.0 mm
22:14 22.2 °C 16.3 °C 1014.2 hPa ONO 6 km/h 10 km/h 69.4% 0.0 mm
22:19 22 °C 16.2 °C 1014.2 hPa ONO 6.5 km/h 11.1 km/h 70% 0.0 mm
22:24 21.9 °C 16.3 °C 1014.3 hPa Oeste 6.5 km/h 11.3 km/h 70.7% 0.0 mm
22:29 21.8 °C 16.3 °C 1014.3 hPa OSO 6.5 km/h 11.3 km/h 71% 0.0 mm
22:34 21.7 °C 16.2 °C 1014.3 hPa OSO 5.3 km/h 9.7 km/h 71% 0.0 mm
22:39 21.6 °C 16.1 °C 1014.3 hPa Oeste 5 km/h 9.7 km/h 71% 0.0 mm
22:44 21.6 °C 16.3 °C 1014.2 hPa ONO 4.7 km/h 13 km/h 71.9% 0.0 mm
22:49 21.5 °C 16.2 °C 1014.2 hPa Oeste 4.7 km/h 12.9 km/h 72% 0.0 mm
22:54 21.5 °C 16.1 °C 1014.3 hPa OSO 6 km/h 9.7 km/h 71.8% 0.0 mm
22:59 21.5 °C 16 °C 1014.3 hPa OSO 6.5 km/h 8 km/h 71.1% 0.0 mm
23:04 21.4 °C 15.9 °C 1014.3 hPa SSO 5 km/h 8 km/h 71% 0.0 mm
23:09 21.5 °C 15.9 °C 1014.3 hPa Sur 4.7 km/h 9.3 km/h 70.7% 0.0 mm
23:14 21.7 °C 15.8 °C 1014.2 hPa SSE 5.5 km/h 11.1 km/h 69.3% 0.0 mm
23:19 21.8 °C 15.7 °C 1014.2 hPa SSE 5.8 km/h 11.3 km/h 68.3% 0.0 mm
23:24 21.9 °C 15.7 °C 1014.2 hPa SSE 7.8 km/h 11.3 km/h 68% 0.0 mm
23:29 21.8 °C 15.7 °C 1014.0 hPa Sur 8.4 km/h 9.7 km/h 68% 0.0 mm
23:34 21.8 °C 15.5 °C 1014.0 hPa SSO 6.9 km/h 9.7 km/h 67.3% 0.0 mm
23:39 21.8 °C 15.4 °C 1014.0 hPa SO 6.5 km/h 8.7 km/h 67% 0.0 mm
23:44 21.8 °C 15.4 °C 1014.0 hPa SSO 5.3 km/h 11.9 km/h 66.9% 0.0 mm
23:49 21.8 °C 15.2 °C 1014.0 hPa SSO 5 km/h 11.3 km/h 66.1% 0.0 mm
23:54 21.8 °C 15.1 °C 1014.0 hPa SSO 6.5 km/h 9.7 km/h 66% 0.0 mm
23:59 21.7 °C 15.1 °C 1013.7 hPa SO 6.9 km/h 11.1 km/h 66% 0.0 mm
Murcia-Puente Tocinos, España
Compliments of Weather Underground - 3.5 mb

La estación de MeteoMurcia.com, publica sus datos en los siguientes proyectos:

Weather Underground PWS IMURCIAP2 Meteoclimatic www.awekas.at

W3Counter
Web Analytics